»·PEaware :: N982CA KSNA-KBLH

N982CA :: KSNA-KBLH

FLIGHT INFORMATION

Flight Status: Arrived
Operator: Privately registered:
United States
More flights under this callsign
Pilot: Anonymous 15639 (15639)
Aircraft: Unknown
(DA62)
More flights by this aircraft type
Origin: KSNA John Wayne-Orange Co
United States
Destination: KBLH Blythe
United States
More flights between these airports :: More routes between these airports
Route: +SLI V64 BLH
File this flight plan on PilotEdge
Remarks:
Altitude:
(Current/Filed)
9,000ft
Speed:
(Current/Filed)
180kts
Departed: 20-Jun-18 12:50 PM
Arrived: 20-Jun-18 01:53 PM
Distance/Time
Traveled:
157nm/1:02
Distance/Time
To Go:
Arrived

Flight Plot

Page will automatically refresh every two minutes.

Flight plan parsing failed; only flown route is shown


Map Options




Map Legend


Flown Route
Filed Route
Departure Airport
Arrival Airport
Navaid (VOR, NDB)
Fix

Horizontal Profiles

Position Reports

Time Latitude Longitude Heading Altitude Ground
Speed
20-Jun-18 12:39 33.672219 -117.873701 206 60ft 0kts
20-Jun-18 12:40 33.672219 -117.873701 206 60ft 0kts
20-Jun-18 12:41 33.672219 -117.873701 206 60ft 0kts
20-Jun-18 12:42 33.672219 -117.873701 206 60ft 0kts
20-Jun-18 12:43 33.672188 -117.873711 185 60ft 1kts
20-Jun-18 12:44 33.671859 -117.873201 118 60ft 2kts
20-Jun-18 12:45 33.673931 -117.871417 29 60ft 16kts
20-Jun-18 12:46 33.678395 -117.868625 25 60ft 16kts
20-Jun-18 12:47 33.681304 -117.866424 129 60ft 0kts
20-Jun-18 12:48 33.681304 -117.866423 128 60ft 0kts
20-Jun-18 12:49 33.681139 -117.866145 126 60ft 7kts
20-Jun-18 12:50 33.670248 -117.872387 208 284ft 86kts
20-Jun-18 12:51 33.654274 -117.899220 244 1164ft 110kts
20-Jun-18 12:52 33.644922 -117.933435 295 2001ft 130kts
20-Jun-18 12:53 33.676757 -117.928918 31 2906ft 131kts
20-Jun-18 12:54 33.707779 -117.905522 47 3802ft 132kts
20-Jun-18 12:55 33.707499 -117.864044 101 4707ft 128kts
20-Jun-18 12:56 33.701787 -117.821914 101 5590ft 129kts
20-Jun-18 12:57 33.695907 -117.779226 101 6450ft 130kts
20-Jun-18 12:58 33.694013 -117.734148 92 7003ft 151kts
20-Jun-18 12:59 33.680048 -117.682722 111 6998ft 167kts
20-Jun-18 13:00 33.663999 -117.629886 111 6997ft 169kts
20-Jun-18 13:01 33.647798 -117.576506 111 6997ft 170kts
20-Jun-18 13:02 33.641545 -117.522635 65 6997ft 174kts
20-Jun-18 13:03 33.661931 -117.471555 64 7372ft 158kts
20-Jun-18 13:04 33.678849 -117.425945 63 8148ft 144kts
20-Jun-18 13:05 33.695152 -117.383059 64 8935ft 139kts
20-Jun-18 13:06 33.711016 -117.341259 65 9724ft 137kts
20-Jun-18 13:07 33.722876 -117.298142 87 10526ft 137kts
20-Jun-18 13:08 33.720784 -117.250913 94 11016ft 156kts
20-Jun-18 13:09 33.716492 -117.194948 94 11011ft 174kts
20-Jun-18 13:10 33.711795 -117.136912 94 11009ft 174kts
20-Jun-18 13:11 33.707052 -117.078928 94 10997ft 175kts
20-Jun-18 13:12 33.702324 -117.021526 95 10978ft 175kts
20-Jun-18 13:13 33.697500 -116.963324 95 10958ft 175kts
20-Jun-18 13:14 33.692644 -116.905075 95 10938ft 175kts
20-Jun-18 13:15 33.687741 -116.846696 95 10972ft 173kts
20-Jun-18 13:16 33.682886 -116.789257 95 11000ft 174kts
20-Jun-18 13:17 33.677967 -116.731267 95 10999ft 175kts
20-Jun-18 13:18 33.672995 -116.672997 95 10999ft 175kts
20-Jun-18 13:19 33.668006 -116.614840 95 10997ft 175kts
20-Jun-18 13:20 33.662992 -116.556704 95 10990ft 175kts
20-Jun-18 13:21 33.657943 -116.498477 95 10983ft 175kts
20-Jun-18 13:22 33.652853 -116.440106 95 10974ft 175kts
20-Jun-18 13:23 33.647742 -116.381813 95 10966ft 176kts
20-Jun-18 13:24 33.642602 -116.323495 95 10963ft 176kts
20-Jun-18 13:25 33.637440 -116.265246 95 10959ft 176kts
20-Jun-18 13:26 33.632231 -116.206782 95 10956ft 176kts
20-Jun-18 13:27 33.627850 -116.148320 91 10954ft 176kts
20-Jun-18 13:28 33.626822 -116.089516 91 10954ft 176kts
20-Jun-18 13:29 33.625769 -116.030836 91 10954ft 176kts
20-Jun-18 13:30 33.624685 -115.972132 91 10954ft 176kts
20-Jun-18 13:31 33.623525 -115.912169 90 10177ft 183kts
20-Jun-18 13:32 33.622336 -115.851002 90 9453ft 181kts
20-Jun-18 13:33 33.621155 -115.791613 90 9444ft 176kts
20-Jun-18 13:34 33.620332 -115.732965 89 9444ft 175kts
20-Jun-18 13:35 33.620435 -115.674661 89 9444ft 175kts
20-Jun-18 13:36 33.620562 -115.616129 89 9444ft 175kts
20-Jun-18 13:37 33.620665 -115.557750 89 9444ft 175kts
20-Jun-18 13:38 33.620740 -115.499416 89 9444ft 175kts
20-Jun-18 13:39 33.620788 -115.441077 89 9444ft 175kts
20-Jun-18 13:40 33.620815 -115.382879 89 9448ft 174kts
20-Jun-18 13:41 33.620813 -115.324610 89 9453ft 175kts
20-Jun-18 13:42 33.620794 -115.266179 89 9457ft 175kts
20-Jun-18 13:43 33.620733 -115.207610 89 9319ft 179kts
20-Jun-18 13:44 33.620634 -115.146404 89 8529ft 186kts
20-Jun-18 13:45 33.620509 -115.083976 89 7731ft 188kts
20-Jun-18 13:46 33.619281 -115.022809 93 6917ft 177kts
20-Jun-18 13:47 33.613051 -114.966027 95 6106ft 168kts
20-Jun-18 13:48 33.615226 -114.910566 81 5193ft 167kts
20-Jun-18 13:49 33.616957 -114.856209 90 4004ft 161kts
20-Jun-18 13:50 33.617078 -114.803926 90 2579ft 152kts
20-Jun-18 13:51 33.616718 -114.757446 90 1264ft 126kts
20-Jun-18 13:52 33.616587 -114.723985 89 403ft 87kts
20-Jun-18 13:53 33.614944 -114.714144 152 396ft 13kts
20-Jun-18 13:54 33.614286 -114.713767 355 396ft 0kts
20-Jun-18 13:55 33.614286 -114.713767 355 396ft 0kts
20-Jun-18 13:56 33.614286 -114.713767 355 396ft 0kts
20-Jun-18 13:57 33.614286 -114.713767 355 396ft 0kts
20-Jun-18 13:58 33.614286 -114.713767 355 396ft 0kts
20-Jun-18 13:59 33.614286 -114.713767 355 396ft 0kts
20-Jun-18 14:00 33.614286 -114.713767 355 396ft 0kts
20-Jun-18 14:01 33.614286 -114.713767 355 396ft 0kts
20-Jun-18 14:02 33.614286 -114.713767 355 396ft 0kts
20-Jun-18 14:03 33.614286 -114.713767 355 396ft 0kts
20-Jun-18 14:04 33.614286 -114.713767 355 396ft 0kts
20-Jun-18 14:05 33.614286 -114.713767 355 396ft 0kts
20-Jun-18 14:06 33.615074 -114.713942 301 396ft 7kts
20-Jun-18 14:07 33.615131 -114.716255 272 396ft 7kts

Navigation Log

Ident Type
Flight plan parsing failed, navigation log unavailable